Time;durP1;ratioP1;P1;durP2;ratioP2;P2;SDS_P1;SDS_P2;PMS_P1;PMS_P2;Temp;Humidity;BMP_temperature;BMP_pressure;BME280_temperature;BME280_humidity;BME280_pressure;Samples;Min_cycle;Max_cycle;Signal;HPM_P1;HPM_P2
2022/06/10 00:01:16;;;;;;;23.80;21.90;;;;;;;18.55;81.89;100286.34;108821;1267;21973;-78
2022/06/10 00:03:46;;;;;;;27.30;25.00;;;;;;;18.55;81.79;100288.08;108471;1273;22140;-78
2022/06/10 00:06:15;;;;;;;25.80;24.00;;;;;;;18.54;81.62;100287.60;108511;1273;23045;-78
2022/06/10 00:08:48;;;;;;;23.70;21.70;;;;;;;18.51;81.77;100286.30;108850;1272;23703;-78
2022/06/10 00:11:17;;;;;;;23.70;21.60;;;;;;;18.50;81.72;100288.78;108823;1270;22056;-78
2022/06/10 00:13:48;;;;;;;23.60;21.90;;;;;;;18.50;81.72;100290.10;109099;1266;21996;-79
2022/06/10 00:16:20;;;;;;;25.60;23.30;;;;;;;18.51;81.82;100288.56;109086;1267;21983;-77
2022/06/10 00:18:50;;;;;;;25.90;24.00;;;;;;;18.50;81.74;100281.91;109175;1267;23641;-79
2022/06/10 00:21:20;;;;;;;24.50;22.30;;;;;;;18.50;81.70;100282.52;108993;1270;22009;-77
2022/06/10 00:23:50;;;;;;;22.30;20.40;;;;;;;18.52;81.79;100281.86;109169;1265;21978;-78
2022/06/10 00:26:20;;;;;;;21.40;19.70;;;;;;;18.51;81.85;100281.95;109944;1257;22008;-79
2022/06/10 00:28:49;;;;;;;21.70;19.90;;;;;;;18.49;81.67;100280.28;110494;1250;22024;-78
2022/06/10 00:31:19;;;;;;;21.30;19.80;;;;;;;18.47;81.74;100286.14;110756;1250;21953;-78
2022/06/10 00:33:53;;;;;;;20.90;19.20;;;;;;;18.46;81.82;100286.11;110769;1250;23590;-78
2022/06/10 00:36:23;;;;;;;23.70;21.80;;;;;;;18.46;81.94;100289.02;110777;1250;23631;-78
2022/06/10 00:38:53;;;;;;;23.20;21.20;;;;;;;18.46;81.72;100293.98;110634;1250;22004;-79
2022/06/10 00:41:22;;;;;;;23.50;21.70;;;;;;;18.45;81.73;100295.14;110821;1250;22037;-79
2022/06/10 00:43:53;;;;;;;24.20;22.30;;;;;;;18.46;81.81;100300.19;110792;1250;22020;-77
2022/06/10 00:46:36;;;;;;;24.50;22.50;;;;;;;18.46;81.69;100305.16;110009;1257;22826;-79
2022/06/10 00:49:07;;;;;;;23.90;22.10;;;;;;;18.44;81.63;100313.77;110218;1256;21965;-77
2022/06/10 00:51:49;;;;;;;25.10;23.10;;;;;;;18.42;81.70;100315.40;109824;1263;23753;-78
2022/06/10 00:54:37;;;;;;;25.70;23.40;;;;;;;18.42;81.77;100322.69;109779;1261;23031;-77
2022/06/10 00:57:18;;;;;;;25.50;23.40;;;;;;;18.40;81.71;100327.18;109678;1263;23649;-79
2022/06/10 01:00:03;;;;;;;24.20;22.40;;;;;;;18.39;81.62;100331.64;109568;1263;22081;-78
2022/06/10 01:02:35;;;;;;;19.40;17.90;;;;;;;18.35;81.68;100334.52;109148;1266;21978;-78
2022/06/10 01:05:18;;;;;;;;;;;;;;;18.30;81.69;100332.20;109183;1264;22830;-78
2022/06/10 01:07:55;;;;;;;16.60;15.10;;;;;;;18.19;81.84;100328.73;109602;1263;23721;-78
2022/06/10 01:11:11;;;;;;;13.50;12.20;;;;;;;18.17;81.91;100330.84;109849;1255;22000;-79
2022/06/10 01:14:37;;;;;;;14.20;12.40;;;;;;;18.11;81.84;100329.20;111165;1255;21959;-79
2022/06/10 01:17:44;;;;;;;13.40;12.30;;;;;;;18.06;81.86;100332.73;110474;1255;23755;-79
2022/06/10 01:21:03;;;;;;;12.20;11.20;;;;;;;18.04;81.84;100333.25;109326;1263;22192;-79
2022/06/10 01:24:55;;;;;;;13.70;12.50;;;;;;;18.00;81.96;100336.27;109874;1263;21998;-78
2022/06/10 01:28:03;;;;;;;14.70;13.60;;;;;;;17.98;81.87;100339.83;108833;1276;21996;-79
2022/06/10 01:31:04;;;;;;;13.50;12.20;;;;;;;17.97;81.93;100337.28;108643;1275;23627;-78
2022/06/10 01:34:12;;;;;;;12.60;11.60;;;;;;;17.97;81.82;100339.95;108678;1276;22019;-81
2022/06/10 01:36:52;;;;;;;13.80;12.60;;;;;;;17.97;82.02;100346.48;108291;1279;21998;-80
2022/06/10 01:39:28;;;;;;;13.20;11.80;;;;;;;18.00;82.08;100352.02;108671;1276;22030;-80
2022/06/10 01:42:22;;;;;;;12.40;11.10;;;;;;;18.00;81.76;100355.89;108463;1276;21956;-79
2022/06/10 01:45:09;;;;;;;11.50;10.40;;;;;;;17.99;81.81;100358.33;108723;1275;22869;-80
2022/06/10 01:48:07;;;;;;;16.60;11.80;;;;;;;17.98;81.77;100361.45;108853;1275;21995;-79
2022/06/10 01:50:40;;;;;;;20.60;13.10;;;;;;;17.96;81.62;100367.02;108356;1280;22706;-79
2022/06/10 01:53:43;;;;;;;11.90;10.80;;;;;;;17.94;81.56;100374.64;108359;1282;22004;-79
2022/06/10 01:56:34;;;;;;;10.90;10.00;;;;;;;17.94;81.84;100380.48;107765;1276;21989;-80
2022/06/10 01:59:37;;;;;;;12.30;11.00;;;;;;;17.93;81.63;100386.94;108454;1276;21999;-80
2022/06/10 02:02:31;;;;;;;11.70;10.70;;;;;;;17.89;81.53;100394.44;108237;1280;22300;-79
2022/06/10 02:05:28;;;;;;;11.00;10.10;;;;;;;17.88;81.68;100392.23;108560;1273;23080;-77
2022/06/10 02:08:30;;;;;;;11.70;10.30;;;;;;;17.88;81.66;100392.89;108810;1272;21991;-79
2022/06/10 02:11:06;;;;;;;;;;;;;;;17.88;81.62;100394.34;108885;1267;23071;-77
2022/06/10 02:13:47;;;;;;;11.80;10.60;;;;;;;17.81;81.73;100400.95;109113;1263;23705;-78
2022/06/10 02:16:25;;;;;;;11.10;9.90;;;;;;;17.80;81.69;100401.02;108964;1267;23782;-78
2022/06/10 02:19:26;;;;;;;10.80;9.70;;;;;;;17.79;81.51;100401.25;108758;1270;23048;-77
2022/06/10 02:22:07;;;;;;;11.80;10.10;;;;;;;17.77;81.54;100402.94;108668;1273;22049;-78
2022/06/10 02:24:48;;;;;;;;;;;;;;;17.76;81.56;100405.52;108332;1276;21973;-77
2022/06/10 02:27:23;;;;;;;12.80;10.20;;;;;;;17.67;81.51;100405.19;108427;1274;21998;-78
2022/06/10 02:30:23;;;;;;;11.40;10.30;;;;;;;17.64;81.53;100411.61;108499;1274;22082;-78
2022/06/10 02:32:57;;;;;;;10.70;9.80;;;;;;;17.63;81.65;100414.77;108653;1274;21982;-77
2022/06/10 02:35:38;;;;;;;11.30;10.10;;;;;;;17.64;81.65;100415.74;108552;1273;21991;-78
2022/06/10 02:38:36;;;;;;;14.10;10.10;;;;;;;17.63;81.54;100418.39;108765;1271;21982;-78
2022/06/10 02:41:38;;;;;;;11.00;9.80;;;;;;;17.61;81.56;100424.52;108930;1261;346292;-78
2022/06/10 02:44:30;;;;;;;9.50;8.70;;;;;;;17.59;81.50;100428.67;110405;1256;21979;-79
2022/06/10 02:47:27;;;;;;;10.20;9.20;;;;;;;17.60;81.50;100433.15;110244;1258;22383;-79
2022/06/10 02:49:59;;;;;;;11.40;10.40;;;;;;;17.60;81.40;100431.75;109855;1260;22961;-80
2022/06/10 02:52:38;;;;;;;10.30;9.40;;;;;;;17.59;81.27;100437.15;109199;1267;21981;-77
2022/06/10 02:55:21;;;;;;;10.50;9.50;;;;;;;17.57;81.31;100440.32;109074;1267;22662;-78
2022/06/10 03:01:20;;;;;;;11.60;10.50;;;;;;;17.52;81.52;100447.73;109838;1262;21962;-78
2022/06/10 03:04:22;;;;;;;12.10;10.00;;;;;;;17.50;81.49;100450.17;109140;1267;23937;-78
2022/06/10 03:07:30;;;;;;;11.30;10.20;;;;;;;17.50;81.41;100451.69;109166;1267;22028;-78
2022/06/10 03:10:22;;;;;;;10.90;9.70;;;;;;;17.50;81.47;100454.89;109376;1262;22777;-78
2022/06/10 03:13:29;;;;;;;10.40;9.20;;;;;;;17.51;81.24;100462.81;109379;1265;21996;-78
2022/06/10 03:17:05;;;;;;;9.90;9.10;;;;;;;17.50;81.20;100472.39;108804;1271;22349;-78
2022/06/10 03:19:57;;;;;;;8.60;7.90;;;;;;;17.47;81.29;100476.47;108643;1271;23786;-78
2022/06/10 03:22:38;;;;;;;10.00;9.00;;;;;;;17.48;81.39;100478.52;108665;1274;22011;-78
2022/06/10 03:25:36;;;;;;;10.40;8.90;;;;;;;17.51;81.30;100486.11;108416;1278;22000;-78
2022/06/10 03:28:31;;;;;;;9.90;8.70;;;;;;;17.52;81.31;100487.09;108391;1277;21992;-77
2022/06/10 03:31:38;;;;;;;9.40;8.50;;;;;;;17.54;81.04;100492.36;108364;1273;21996;-78
2022/06/10 03:34:15;;;;;;;9.80;8.80;;;;;;;17.54;81.05;100500.16;108681;1269;22005;-79
2022/06/10 03:36:46;;;;;;;8.50;7.70;;;;;;;17.53;80.98;100504.15;108822;1270;21995;-77
2022/06/10 03:39:21;;;;;;;8.50;7.70;;;;;;;17.57;81.08;100508.30;108773;1271;22986;-77
2022/06/10 03:41:58;;;;;;;9.40;8.10;;;;;;;17.60;81.02;100510.74;109368;1264;23566;-77
2022/06/10 03:44:34;;;;;;;10.80;8.20;;;;;;;17.61;80.85;100516.63;110260;1259;21965;-77
2022/06/10 03:47:14;;;;;;;9.10;8.20;;;;;;;17.62;80.75;100521.30;109772;1262;22098;-78
2022/06/10 03:49:57;;;;;;;8.80;7.90;;;;;;;17.62;80.67;100524.63;109644;1262;23106;-78
2022/06/10 03:52:38;;;;;;;8.90;8.10;;;;;;;17.64;80.49;100527.42;110413;1256;21979;-78
2022/06/10 03:55:18;;;;;;;8.70;6.80;;;;;;;17.65;80.37;100532.48;110331;1256;21960;-78
2022/06/10 03:57:53;;;;;;;8.60;7.30;;;;;;;17.63;80.08;100540.54;110257;1256;23763;-79
2022/06/10 04:00:28;;;;;;;8.40;6.90;;;;;;;17.60;79.99;100547.73;109480;1260;22006;-79
2022/06/10 04:02:58;;;;;;;8.00;7.20;;;;;;;17.60;79.93;100553.98;109633;1262;22716;-79
2022/06/10 04:05:28;;;;;;;8.60;7.60;;;;;;;17.60;79.75;100561.45;110085;1256;22033;-78
2022/06/10 04:07:58;;;;;;;9.20;7.40;;;;;;;17.60;79.67;100560.67;110547;1256;23140;-77
2022/06/10 04:10:31;;;;;;;7.10;6.40;;;;;;;17.59;79.30;100570.30;110311;1257;21981;-79
2022/06/10 04:13:11;;;;;;;7.80;7.10;;;;;;;17.55;79.19;100572.40;110551;1255;22422;-79
2022/06/10 04:15:40;;;;;;;7.30;6.60;;;;;;;17.54;79.09;100569.20;109651;1261;22995;-79
2022/06/10 04:18:13;;;;;;;7.40;6.50;;;;;;;17.56;79.06;100573.74;109241;1262;21938;-78
2022/06/10 04:20:47;;;;;;;8.20;7.10;;;;;;;17.57;78.96;100575.23;109900;1261;22960;-78
2022/06/10 04:23:32;;;;;;;6.90;6.10;;;;;;;17.56;78.75;100574.95;109892;1263;21992;-79
2022/06/10 04:26:06;;;;;;;6.40;5.90;;;;;;;17.57;78.69;100573.67;109964;1264;23065;-79
2022/06/10 04:29:07;;;;;;;;;;;;;;;;;;;;;
2022/06/10 04:31:47;;;;;;;6.80;6.10;;;;;;;17.60;78.36;100582.86;108708;1277;23195;-77
2022/06/10 04:34:47;;;;;;;11.90;6.90;;;;;;;17.61;78.25;100582.50;109026;1278;21984;-76
2022/06/10 04:37:21;;;;;;;8.60;6.30;;;;;;;17.64;78.24;100588.45;107723;1288;23837;-79
2022/06/10 04:40:08;;;;;;;14.00;6.00;;;;;;;17.71;78.15;100593.98;107762;1285;22106;-78
2022/06/10 04:42:37;;;;;;;6.80;6.30;;;;;;;17.78;78.09;100597.70;107572;1285;23630;-77
2022/06/10 04:45:08;;;;;;;6.60;5.50;;;;;;;17.82;77.76;100601.80;108175;1279;24048;-76
2022/06/10 04:47:37;;;;;;;7.30;5.60;;;;;;;17.83;77.38;100599.83;108307;1276;21981;-77
2022/06/10 04:50:10;;;;;;;6.10;5.60;;;;;;;17.86;77.20;100606.11;108507;1276;22258;-76
2022/06/10 04:52:40;;;;;;;5.90;5.40;;;;;;;17.87;76.94;100610.48;108724;1270;23025;-77
2022/06/10 04:55:11;;;;;;;6.30;5.70;;;;;;;17.88;76.76;100612.13;108775;1272;22661;-76
2022/06/10 04:57:41;;;;;;;7.10;5.30;;;;;;;17.88;76.41;100612.11;108927;1271;23736;-78
2022/06/10 05:00:19;;;;;;;7.20;5.80;;;;;;;17.85;76.10;100615.45;108720;1271;21992;-78
2022/06/10 05:02:48;;;;;;;6.90;5.90;;;;;;;17.83;76.12;100622.81;108874;1270;22054;-77
2022/06/10 05:05:18;;;;;;;6.90;5.40;;;;;;;17.82;75.89;100627.95;108769;1270;22000;-77
2022/06/10 05:07:48;;;;;;;8.40;6.10;;;;;;;17.80;75.76;100629.70;108869;1267;21977;-77
2022/06/10 05:10:19;;;;;;;6.10;5.50;;;;;;;17.78;75.82;100634.70;109945;1260;23606;-77
2022/06/10 05:12:49;;;;;;;6.60;5.70;;;;;;;17.76;75.69;100638.27;110050;1258;21987;-76
2022/06/10 05:15:20;;;;;;;7.70;5.90;;;;;;;17.73;75.60;100644.67;110609;1250;21957;-77
2022/06/10 05:17:52;;;;;;;7.80;6.30;;;;;;;17.74;75.64;100650.63;111213;1247;21973;-77
2022/06/10 05:20:31;;;;;;;7.50;5.30;;;;;;;17.77;75.73;100657.80;111020;1249;21964;-77
2022/06/10 05:23:03;;;;;;;6.90;6.30;;;;;;;17.79;75.38;100662.74;110449;1256;21962;-76
2022/06/10 05:25:33;;;;;;;6.60;6.10;;;;;;;17.83;75.59;100666.27;110207;1254;23071;-77
2022/06/10 05:28:05;;;;;;;5.90;5.40;;;;;;;17.90;75.53;100675.52;110505;1253;21965;-77
2022/06/10 05:30:35;;;;;;;6.00;5.40;;;;;;;17.94;75.26;100682.34;110538;1253;22077;-77
2022/06/10 05:33:08;;;;;;;8.70;5.90;;;;;;;17.97;74.99;100690.46;110174;1259;21972;-77
2022/06/10 05:35:39;;;;;;;5.90;5.40;;;;;;;18.01;74.82;100698.48;110112;1257;23048;-77
2022/06/10 05:38:11;;;;;;;6.60;6.10;;;;;;;18.06;74.70;100699.98;110066;1257;23068;-79
2022/06/10 05:42:04;;;;;;;6.70;5.70;;;;;;;18.15;74.81;100705.82;110122;1253;21953;-78
2022/06/10 05:44:07;;;;;;;6.00;5.40;;;;;;;18.27;74.96;100707.47;110538;1253;21949;-79
2022/06/10 05:46:44;;;;;;;6.20;5.70;;;;;;;18.40;74.72;100706.79;109656;1261;22015;-78
2022/06/10 05:49:14;;;;;;;6.60;5.90;;;;;;;18.55;74.50;100711.39;109736;1261;21970;-78
2022/06/10 05:51:44;;;;;;;6.40;5.50;;;;;;;18.64;74.06;100709.71;110021;1255;23215;-78
2022/06/10 05:54:15;;;;;;;6.10;5.20;;;;;;;18.76;73.74;100712.02;110245;1256;22738;-84
2022/06/10 05:56:48;;;;;;;6.20;5.30;;;;;;;18.88;73.36;100715.44;110486;1255;21981;-83
2022/06/10 05:59:18;;;;;;;6.30;5.10;;;;;;;19.01;73.13;100716.27;110249;1255;21978;-82
2022/06/10 06:01:51;;;;;;;6.10;4.80;;;;;;;19.12;72.48;100718.96;110791;1254;21959;-81
2022/06/10 06:04:24;;;;;;;6.50;5.50;;;;;;;19.22;72.14;100720.76;110728;1248;21962;-82
2022/06/10 06:06:54;;;;;;;6.50;4.70;;;;;;;19.39;72.35;100725.34;111162;1247;21956;-85
2022/06/10 06:09:30;;;;;;;6.20;4.60;;;;;;;19.63;72.21;100730.39;110958;1250;21964;-86
2022/06/10 06:12:09;;;;;;;10.70;4.70;;;;;;;19.96;72.32;100729.76;110944;1248;24357;-82
2022/06/10 06:14:40;;;;;;;9.60;5.10;;;;;;;20.34;71.80;100731.28;111132;1247;23685;-82
2022/06/10 06:17:15;;;;;;;7.30;4.70;;;;;;;20.64;70.52;100732.33;111143;1247;21967;-85
2022/06/10 06:19:46;;;;;;;7.80;4.60;;;;;;;20.93;69.21;100735.08;110789;1256;21982;-83
2022/06/10 06:22:19;;;;;;;5.70;4.30;;;;;;;21.27;68.64;100743.27;110691;1253;22029;-82
2022/06/10 06:24:48;;;;;;;10.30;3.70;;;;;;;21.63;67.71;100745.53;110870;1253;24183;-83
2022/06/10 06:27:18;;;;;;;5.30;4.10;;;;;;;22.04;67.15;100754.21;110503;1256;21972;-82
2022/06/10 06:29:49;;;;;;;5.70;4.40;;;;;;;22.41;65.41;100751.95;110815;1253;22317;-83
2022/06/10 06:32:20;;;;;;;4.60;4.20;;;;;;;22.66;63.67;100752.67;110727;1256;22284;-83
2022/06/10 06:34:50;;;;;;;4.90;4.00;;;;;;;22.85;62.32;100758.14;110314;1258;23724;-82
2022/06/10 06:37:20;;;;;;;5.50;5.00;;;;;;;22.96;61.01;100761.61;110380;1257;21967;-82
2022/06/10 06:39:50;;;;;;;6.00;4.30;;;;;;;22.95;59.86;100764.56;110007;1259;22159;-83
2022/06/10 06:42:21;;;;;;;6.40;4.10;;;;;;;22.93;59.36;100766.88;109879;1261;21979;-84
2022/06/10 06:44:58;;;;;;;4.70;3.70;;;;;;;22.89;59.03;100771.86;110608;1253;22755;-81
2022/06/10 06:47:49;;;;;;;5.60;3.60;;;;;;;22.78;58.57;100775.60;110403;1255;21972;-83
2022/06/10 06:50:26;;;;;;;5.40;3.50;;;;;;;22.62;58.23;100778.39;110554;1257;22982;-80
2022/06/10 06:52:56;;;;;;;4.80;3.60;;;;;;;22.45;58.74;100777.50;110639;1250;23083;-82
2022/06/10 06:55:36;;;;;;;4.40;4.00;;;;;;;22.37;58.97;100780.16;111041;1250;21958;-83
2022/06/10 06:58:10;;;;;;;5.40;4.10;;;;;;;22.36;59.18;100782.32;111064;1250;23054;-82
2022/06/10 07:00:50;;;;;;;4.60;4.10;;;;;;;22.36;59.19;100785.91;111101;1250;22153;-82
2022/06/10 07:03:23;;;;;;;4.10;3.70;;;;;;;22.35;59.02;100787.61;110814;1250;22001;-82
2022/06/10 07:05:53;;;;;;;3.60;3.30;;;;;;;22.35;58.88;100791.44;111051;1250;21969;-83
2022/06/10 07:08:31;;;;;;;4.60;3.40;;;;;;;22.46;59.26;100793.30;111106;1247;21961;-82
2022/06/10 07:11:05;;;;;;;5.80;3.00;;;;;;;22.63;59.09;100793.61;111290;1247;21974;-82
2022/06/10 07:13:41;;;;;;;6.10;3.30;;;;;;;22.85;58.99;100793.97;110761;1253;22097;-85
2022/06/10 07:16:14;;;;;;;4.20;2.90;;;;;;;23.13;58.57;100798.92;110971;1253;22388;-79
2022/06/10 07:18:47;;;;;;;4.30;3.10;;;;;;;23.26;56.89;100800.23;110838;1253;21996;-79
2022/06/10 07:21:22;;;;;;;4.80;2.90;;;;;;;23.36;56.92;100803.86;110713;1253;22016;-85
2022/06/10 07:23:57;;;;;;;5.70;2.70;;;;;;;23.49;56.50;100800.92;109703;1261;21988;-80
2022/06/10 07:26:27;;;;;;;3.80;2.60;;;;;;;23.62;56.30;100801.75;110012;1262;22011;-81
2022/06/10 07:28:56;;;;;;;3.90;2.40;;;;;;;23.77;55.83;100802.63;109164;1267;23922;-81
2022/06/10 07:31:28;;;;;;;3.90;2.10;;;;;;;23.97;55.60;100802.52;109525;1265;23055;-81
2022/06/10 07:34:08;;;;;;;3.50;1.90;;;;;;;24.14;54.55;100806.84;109549;1264;21975;-81
2022/06/10 07:36:40;;;;;;;4.00;2.50;;;;;;;24.24;53.58;100807.35;109862;1264;22090;-80
2022/06/10 07:39:09;;;;;;;5.50;2.50;;;;;;;24.26;52.84;100808.59;109633;1265;21985;-80
2022/06/10 07:41:57;;;;;;;10.70;3.90;;;;;;;24.30;52.76;100812.42;109634;1259;21965;-81
2022/06/10 07:44:30;;;;;;;4.60;2.60;;;;;;;24.46;52.88;100816.30;110518;1256;21958;-81
2022/06/10 07:47:10;;;;;;;4.50;2.20;;;;;;;24.72;52.64;100815.24;110529;1254;22752;-81
2022/06/10 07:49:41;;;;;;;5.20;2.30;;;;;;;24.90;51.81;100822.14;110820;1254;21966;-80
2022/06/10 07:52:13;;;;;;;9.40;4.20;;;;;;;24.95;51.17;100818.14;111062;1247;21946;-81
2022/06/10 07:54:43;;;;;;;9.30;3.30;;;;;;;25.01;50.91;100817.65;110891;1250;23677;-80
2022/06/10 07:57:14;;;;;;;6.50;2.60;;;;;;;25.20;50.97;100822.23;111128;1250;23815;-81
2022/06/10 07:59:55;;;;;;;8.70;2.50;;;;;;;25.29;50.59;100824.88;111396;1247;23083;-85
2022/06/10 08:02:25;;;;;;;10.10;2.20;;;;;;;25.53;50.31;100822.70;111229;1247;22062;-85
2022/06/10 08:04:58;;;;;;;4.60;1.40;;;;;;;25.75;49.62;100825.59;111100;1248;22899;-85
2022/06/10 08:07:29;;;;;;;2.70;1.10;;;;;;;25.85;48.84;100828.08;110779;1253;22509;-85
2022/06/10 08:10:02;;;;;;;2.20;1.20;;;;;;;25.96;47.77;100832.89;109976;1262;21989;-85
2022/06/10 08:12:32;;;;;;;8.20;2.40;;;;;;;25.94;46.73;100830.92;110209;1259;21976;-84
2022/06/10 08:15:05;;;;;;;4.20;2.00;;;;;;;25.98;47.25;100827.87;110264;1258;22754;-84
2022/06/10 08:17:35;;;;;;;5.30;1.70;;;;;;;26.18;47.82;100827.48;109718;1265;23086;-84
2022/06/10 08:20:09;;;;;;;7.80;2.50;;;;;;;26.28;47.12;100830.37;109619;1265;23657;-85
2022/06/10 08:22:38;;;;;;;5.30;2.10;;;;;;;26.17;46.26;100829.55;109502;1265;23066;-84
2022/06/10 08:25:11;;;;;;;5.80;2.10;;;;;;;26.14;47.07;100834.29;109425;1262;21999;-84
2022/06/10 08:27:54;;;;;;;2.70;1.70;;;;;;;26.12;46.09;100836.27;110143;1256;21960;-84
2022/06/10 08:30:24;;;;;;;4.40;1.20;;;;;;;25.96;45.74;100836.85;110802;1257;23029;-85
2022/06/10 08:32:54;;;;;;;2.60;1.30;;;;;;;25.89;46.57;100836.80;110689;1253;21964;-85
2022/06/10 08:35:24;;;;;;;2.00;1.10;;;;;;;25.97;46.98;100840.39;110772;1255;21945;-84
2022/06/10 08:37:54;;;;;;;4.50;1.60;;;;;;;26.11;46.87;100839.40;110847;1255;23588;-85
2022/06/10 08:40:39;;;;;;;2.30;1.20;;;;;;;26.35;47.06;100841.96;110581;1256;21980;-85
2022/06/10 08:43:20;;;;;;;1.00;0.90;;;;;;;26.65;45.96;100844.29;110664;1253;23586;-84
2022/06/10 08:46:48;;;;;;;3.20;1.10;;;;;;;26.76;44.77;100849.11;110164;1256;21973;-85
2022/06/10 08:49:52;;;;;;;1.20;0.70;;;;;;;26.99;44.85;100851.98;110416;1256;23909;-84
2022/06/10 08:52:55;;;;;;;1.70;0.70;;;;;;;27.19;43.55;100853.97;110634;1256;21960;-84
2022/06/10 08:56:00;;;;;;;2.40;0.90;;;;;;;27.04;42.28;100857.76;110668;1255;23743;-84
2022/06/10 08:58:39;;;;;;;3.00;1.00;;;;;;;26.81;42.51;100857.98;109678;1262;21971;-85
2022/06/10 09:01:22;;;;;;;7.00;0.90;;;;;;;26.64;43.31;100853.66;109783;1259;21966;-84
2022/06/10 09:04:02;;;;;;;4.00;0.70;;;;;;;26.64;43.59;100851.88;110283;1255;21989;-83
2022/06/10 09:06:51;;;;;;;5.20;1.70;;;;;;;26.73;43.41;100852.72;110860;1256;21953;-82
2022/06/10 09:09:26;;;;;;;3.70;0.90;;;;;;;26.99;43.60;100857.06;110436;1256;23880;-83
2022/06/10 09:12:11;;;;;;;2.30;1.10;;;;;;;27.29;43.01;100859.31;109960;1261;21987;-83
2022/06/10 09:14:43;;;;;;;1.30;0.80;;;;;;;27.53;42.02;100856.84;110065;1262;21968;-83
2022/06/10 09:17:33;;;;;;;3.10;1.00;;;;;;;27.60;41.70;100858.90;109923;1261;21962;-83
2022/06/10 09:20:24;;;;;;;2.40;1.30;;;;;;;27.68;41.56;100862.13;109664;1263;23086;-82
2022/06/10 09:23:13;;;;;;;4.20;1.30;;;;;;;27.82;41.47;100864.50;109811;1259;21980;-83
2022/06/10 09:25:49;;;;;;;4.70;1.40;;;;;;;27.96;41.27;100861.96;110135;1259;21976;-83
2022/06/10 09:28:30;;;;;;;2.70;1.30;;;;;;;28.01;40.36;100861.42;109361;1264;22436;-83
2022/06/10 09:31:25;;;;;;;4.70;1.50;;;;;;;27.88;39.75;100865.59;109499;1261;22660;-83
2022/06/10 09:34:32;;;;;;;1.60;1.00;;;;;;;27.84;40.32;100866.08;110089;1259;21957;-82
2022/06/10 09:37:10;;;;;;;1.80;1.20;;;;;;;27.64;40.52;100863.27;110104;1259;21967;-83
2022/06/10 09:43:14;;;;;;;1.60;1.10;;;;;;;27.56;40.64;100863.02;110206;1259;21986;-82
2022/06/10 09:46:14;;;;;;;2.50;1.50;;;;;;;27.52;40.48;100864.60;110024;1255;22082;-82
2022/06/10 09:49:14;;;;;;;2.50;1.60;;;;;;;27.48;40.67;100867.09;110805;1256;21955;-82
2022/06/10 09:52:05;;;;;;;4.40;2.50;;;;;;;27.41;40.95;100870.33;110851;1254;23575;-81
2022/06/10 09:54:44;;;;;;;6.80;2.50;;;;;;;27.20;41.42;100873.67;110407;1260;22747;-79
2022/06/10 09:58:04;;;;;;;5.30;2.50;;;;;;;27.14;42.74;100875.70;110433;1260;21981;-82
2022/06/10 10:01:10;;;;;;;4.30;2.40;;;;;;;27.27;43.14;100877.98;110070;1260;23057;-82
2022/06/10 10:04:14;;;;;;;5.20;2.20;;;;;;;27.24;42.13;100879.82;109995;1260;23765;-83
2022/06/10 10:07:08;;;;;;;5.60;2.40;;;;;;;27.13;42.72;100879.17;110538;1259;23766;-83
2022/06/10 10:10:36;;;;;;;5.90;2.20;;;;;;;27.14;43.05;100882.81;110142;1260;21975;-82
2022/06/10 10:13:34;;;;;;;3.40;1.70;;;;;;;27.15;42.67;100881.95;109790;1263;21980;-83
2022/06/10 10:16:40;;;;;;;3.20;1.60;;;;;;;27.09;42.67;100882.55;110217;1261;22018;-81
2022/06/10 10:19:52;;;;;;;3.00;2.00;;;;;;;27.06;42.78;100883.89;110384;1261;21974;-82
2022/06/10 10:23:02;;;;;;;4.20;1.60;;;;;;;27.01;42.15;100883.75;110589;1256;21979;-82
2022/06/10 10:25:34;;;;;;;3.00;1.60;;;;;;;26.92;42.01;100883.23;110859;1255;22030;-82
2022/06/10 10:28:14;;;;;;;2.90;1.60;;;;;;;26.94;41.94;100884.34;111001;1255;23694;-83
2022/06/10 10:31:05;;;;;;;2.40;1.60;;;;;;;26.87;41.26;100885.00;110816;1254;22445;-83
2022/06/10 10:33:35;;;;;;;5.20;1.90;;;;;;;26.75;41.15;100878.10;110613;1256;21969;-82
2022/06/10 10:36:20;;;;;;;3.80;1.80;;;;;;;26.62;41.22;100881.55;109638;1261;23055;-83
2022/06/10 10:38:52;;;;;;;4.30;2.20;;;;;;;26.42;41.70;100886.70;110244;1262;21979;-83
2022/06/10 10:41:40;;;;;;;5.10;2.20;;;;;;;26.33;42.10;100886.68;109722;1265;22007;-84
2022/06/10 10:44:29;;;;;;;4.10;2.00;;;;;;;26.28;42.66;100888.16;109360;1270;21979;-82
2022/06/10 10:47:09;;;;;;;7.60;1.60;;;;;;;26.26;42.95;100886.41;109494;1264;23048;-81
2022/06/10 10:50:12;;;;;;;6.30;1.80;;;;;;;26.24;42.75;100888.95;109816;1263;21980;-84
2022/06/10 10:52:44;;;;;;;7.50;2.10;;;;;;;26.21;42.33;100887.14;109545;1265;21987;-83
2022/06/10 10:55:13;;;;;;;4.40;1.70;;;;;;;26.11;41.99;100886.02;109549;1264;21996;-83
2022/06/10 10:58:28;;;;;;;2.30;1.20;;;;;;;25.98;41.75;100885.59;109577;1266;24389;-83
2022/06/10 11:01:50;;;;;;;2.70;1.50;;;;;;;25.82;41.93;100882.84;110015;1259;22110;-84
2022/06/10 11:04:26;;;;;;;3.90;1.90;;;;;;;25.73;42.53;100888.09;111002;1254;24281;-83
2022/06/10 11:07:11;;;;;;;4.90;1.70;;;;;;;25.63;42.67;100890.48;111133;1250;21954;-81
2022/06/10 11:10:18;;;;;;;2.40;1.90;;;;;;;25.46;42.63;100890.84;111333;1248;23036;-83
2022/06/10 11:12:52;;;;;;;5.40;2.10;;;;;;;25.20;43.02;100890.38;111199;1250;22060;-82
2022/06/10 11:15:46;;;;;;;3.10;2.20;;;;;;;25.13;44.19;100891.56;111287;1250;21961;-83
2022/06/10 11:18:29;;;;;;;3.80;2.20;;;;;;;25.09;44.41;100891.45;111626;1250;22003;-81
2022/06/10 11:21:01;;;;;;;3.90;2.30;;;;;;;25.05;44.30;100895.51;111220;1250;22758;-84
2022/06/10 11:23:31;;;;;;;6.10;2.70;;;;;;;25.00;44.37;100896.85;111173;1250;21949;-83
2022/06/10 11:26:14;;;;;;;;;;;;;;;24.97;44.64;100891.51;110700;1254;21963;-81
2022/06/10 11:28:46;;;;;;;3.00;2.20;;;;;;;24.92;44.86;100891.92;110211;1261;21976;-82
2022/06/10 11:31:48;;;;;;;7.90;2.20;;;;;;;24.92;44.75;100896.20;110366;1261;22344;-81
2022/06/10 11:34:41;;;;;;;3.60;2.20;;;;;;;24.84;44.22;100894.67;110150;1261;23702;-82
2022/06/10 11:37:32;;;;;;;2.80;1.60;;;;;;;24.77;44.05;100897.40;110558;1258;23595;-82
2022/06/10 11:40:25;;;;;;;6.00;2.10;;;;;;;24.75;43.65;100900.98;110212;1259;21973;-80
2022/06/10 11:43:18;;;;;;;5.60;2.80;;;;;;;24.72;43.79;100900.14;110343;1259;24208;-82
2022/06/10 11:46:28;;;;;;;4.00;2.40;;;;;;;24.71;43.82;100895.64;110687;1256;21966;-79
2022/06/10 11:49:19;;;;;;;7.30;2.80;;;;;;;24.71;43.86;100902.27;111802;1250;22418;-80
2022/06/10 11:52:28;;;;;;;7.20;2.70;;;;;;;24.69;44.46;100897.38;111311;1248;22009;-80
2022/06/10 11:55:27;;;;;;;5.00;2.10;;;;;;;24.67;44.28;100897.58;110653;1256;21953;-78
2022/06/10 12:01:36;;;;;;;6.10;2.30;;;;;;;24.78;44.39;100897.79;110777;1256;22105;-79
2022/06/10 12:04:27;;;;;;;4.70;2.50;;;;;;;24.78;44.00;100892.43;110450;1262;21972;-80
2022/06/10 12:07:06;;;;;;;4.30;2.00;;;;;;;24.78;43.69;100893.14;110253;1262;21964;-80
2022/06/10 12:09:43;;;;;;;3.20;1.60;;;;;;;24.73;43.44;100897.66;109639;1262;21971;-79
2022/06/10 12:12:19;;;;;;;5.40;1.60;;;;;;;24.73;43.45;100895.71;109243;1270;21975;-79
2022/06/10 12:14:55;;;;;;;7.30;2.00;;;;;;;24.78;43.47;100893.14;109074;1270;22097;-81
2022/06/10 12:17:46;;;;;;;3.00;1.60;;;;;;;24.84;43.31;100894.85;109251;1266;22011;-80
2022/06/10 12:20:29;;;;;;;2.50;1.80;;;;;;;24.87;43.11;100891.38;109363;1268;21996;-80
2022/06/10 12:23:37;;;;;;;3.70;1.90;;;;;;;24.89;43.40;100888.75;109091;1271;21947;-79
2022/06/10 12:26:38;;;;;;;3.00;1.30;;;;;;;24.89;43.42;100893.08;108886;1271;22765;-80
2022/06/10 12:29:45;;;;;;;5.40;1.90;;;;;;;24.87;43.61;100887.96;108923;1271;23200;-79
2022/06/10 12:32:23;;;;;;;3.40;1.70;;;;;;;24.88;43.78;100887.06;109203;1266;23598;-78
2022/06/10 12:35:00;;;;;;;3.60;1.50;;;;;;;24.97;43.51;100891.67;109958;1260;21989;-79
2022/06/10 12:37:49;;;;;;;3.90;1.20;;;;;;;25.02;43.06;100888.54;109935;1260;22005;-81